createdAt,value
2023-04-03T00:04:29.551Z,99.90
2023-04-03T00:09:37.492Z,99.90
2023-04-03T00:14:44.985Z,99.90
2023-04-03T00:19:52.832Z,99.90
2023-04-03T00:24:59.923Z,99.90
2023-04-03T00:30:08.998Z,99.90
2023-04-03T00:35:17.242Z,99.90
2023-04-03T00:40:26.801Z,99.90
2023-04-03T00:45:41.437Z,99.90
2023-04-03T00:50:49.080Z,99.90
2023-04-03T00:55:57.711Z,99.90
2023-04-03T01:01:07.951Z,99.90
2023-04-03T01:06:20.528Z,99.90
2023-04-03T01:11:28.498Z,99.90
2023-04-03T01:16:36.242Z,99.90
2023-04-03T01:22:02.872Z,99.90
2023-04-03T01:27:14.699Z,99.90
2023-04-03T01:32:22.311Z,99.90
2023-04-03T01:37:29.603Z,99.90
2023-04-03T01:42:39.383Z,99.90
2023-04-03T01:47:47.101Z,99.90
2023-04-03T01:52:54.318Z,99.90
2023-04-03T01:58:01.764Z,99.90
2023-04-03T02:03:08.523Z,99.90
2023-04-03T02:08:16.501Z,99.90
2023-04-03T02:13:23.845Z,99.90
2023-04-03T02:18:30.802Z,99.90
2023-04-03T02:23:38.252Z,99.90
2023-04-03T02:28:47.531Z,99.90
2023-04-03T02:33:54.464Z,99.90
2023-04-03T02:39:01.896Z,99.90
2023-04-03T02:44:12.257Z,99.90
2023-04-03T02:49:20.437Z,99.90
2023-04-03T02:54:29.511Z,99.90
2023-04-03T02:59:36.287Z,99.90
2023-04-03T03:04:44.694Z,99.90
2023-04-03T03:09:52.459Z,99.90
2023-04-03T03:15:00.469Z,99.90
2023-04-03T03:20:10.004Z,99.90
2023-04-03T03:25:17.509Z,99.90
2023-04-03T03:30:25.566Z,99.90
2023-04-03T03:35:32.700Z,99.90
2023-04-03T03:40:41.123Z,99.90
2023-04-03T03:45:54.169Z,99.90
2023-04-03T03:51:01.932Z,99.90
2023-04-03T03:56:09.139Z,99.90
2023-04-03T04:01:16.439Z,99.90
2023-04-03T04:06:23.855Z,99.90
2023-04-03T04:11:31.813Z,99.90
2023-04-03T04:16:39.116Z,99.90
2023-04-03T04:21:48.009Z,99.90
2023-04-03T04:26:55.569Z,99.90
2023-04-03T04:32:03.155Z,99.90
2023-04-03T04:37:10.682Z,99.90
2023-04-03T04:42:18.216Z,99.90
2023-04-03T04:47:26.031Z,99.90
2023-04-03T04:52:33.417Z,99.90
2023-04-03T04:57:40.529Z,99.90
2023-04-03T05:02:48.438Z,99.90
2023-04-03T05:07:55.578Z,99.90
2023-04-03T05:13:02.729Z,99.90
2023-04-03T05:18:10.907Z,99.90
2023-04-03T05:23:18.018Z,99.90
2023-04-03T05:28:28.467Z,99.90
2023-04-03T05:33:37.904Z,99.90
2023-04-03T05:38:44.939Z,99.90
2023-04-03T05:43:52.431Z,99.90
2023-04-03T05:48:59.365Z,99.90
2023-04-03T05:54:30.715Z,99.90
2023-04-03T05:59:38.936Z,99.90
2023-04-03T06:04:46.043Z,99.90
2023-04-03T06:09:54.181Z,99.90
2023-04-03T06:15:04.088Z,99.90
2023-04-03T06:20:11.598Z,99.90
2023-04-03T06:25:20.222Z,99.90
2023-04-03T06:30:28.036Z,99.90
2023-04-03T06:35:36.613Z,99.90
2023-04-03T06:40:43.508Z,99.90
2023-04-03T06:45:51.627Z,99.90
2023-04-03T06:50:58.530Z,99.90
2023-04-03T06:56:05.881Z,99.90
2023-04-03T07:01:16.327Z,99.90
2023-04-03T07:06:24.087Z,99.90
2023-04-03T07:11:31.560Z,99.90
2023-04-03T07:16:41.103Z,99.90
2023-04-03T07:21:50.162Z,99.90
2023-04-03T07:26:57.523Z,99.90
2023-04-03T07:32:05.308Z,99.90
2023-04-03T07:37:13.197Z,99.90
2023-04-03T07:42:20.256Z,99.90
2023-04-03T07:47:27.909Z,99.90
2023-04-03T07:52:34.881Z,99.90
2023-04-03T07:57:43.775Z,99.90
2023-04-03T08:02:53.650Z,99.90
2023-04-03T08:08:00.722Z,99.90
2023-04-03T08:13:08.810Z,99.90
2023-04-03T08:18:17.741Z,99.90
2023-04-03T08:23:25.023Z,99.90
2023-04-03T08:28:31.042Z,99.90
2023-04-03T08:33:39.096Z,99.90
2023-04-03T08:38:46.383Z,99.90
2023-04-03T08:44:01.140Z,99.90
2023-04-03T08:49:25.350Z,99.90
2023-04-03T08:54:40.095Z,99.90
2023-04-03T08:59:47.440Z,99.90
2023-04-03T09:04:54.788Z,99.90
2023-04-03T09:10:04.826Z,99.90
2023-04-03T09:15:37.952Z,99.90
2023-04-03T09:21:00.948Z,99.90
2023-04-03T09:26:12.932Z,99.90
2023-04-03T09:31:33.612Z,99.90
2023-04-03T09:36:50.753Z,99.90
2023-04-03T09:42:25.674Z,99.90
2023-04-03T09:47:38.054Z,99.90
2023-04-03T09:52:48.699Z,99.90
2023-04-03T09:57:59.054Z,99.90
2023-04-03T10:03:07.424Z,97.60
2023-04-03T10:08:22.233Z,97.40
2023-04-03T10:13:30.968Z,98.20
2023-04-03T10:18:56.092Z,96.60
2023-04-03T10:24:37.886Z,99.90
2023-04-03T10:30:20.962Z,97.80
2023-04-03T10:35:51.057Z,98.70
2023-04-03T10:41:25.046Z,98.10
2023-04-03T10:46:41.859Z,97.40
2023-04-03T10:51:55.789Z,99.90
2023-04-03T10:57:13.959Z,99.10
2023-04-03T11:02:34.327Z,98.50
2023-04-03T11:07:45.762Z,97.70
2023-04-03T11:12:57.154Z,98.50
2023-04-03T11:18:14.267Z,99.00
2023-04-03T11:23:42.274Z,98.40
2023-04-03T11:28:41.970Z,95.70
2023-04-03T11:34:26.967Z,95.80
2023-04-03T11:39:39.784Z,95.40
2023-04-03T11:44:47.748Z,95.70
2023-04-03T11:50:06.952Z,96.00
2023-04-03T11:55:38.621Z,96.90
2023-04-03T12:00:58.307Z,98.70
2023-04-03T12:06:15.345Z,98.90
2023-04-03T12:11:31.800Z,96.40
2023-04-03T12:16:45.356Z,94.50
2023-04-03T12:22:04.692Z,96.20
2023-04-03T12:27:35.978Z,96.60
2023-04-03T12:33:05.853Z,96.00
2023-04-03T12:38:50.239Z,96.40
2023-04-03T12:44:35.983Z,95.20
2023-04-03T12:49:46.327Z,96.90
2023-04-03T12:54:54.408Z,96.50
2023-04-03T13:00:02.590Z,96.00
2023-04-03T13:05:12.428Z,95.60
2023-04-03T13:10:21.495Z,95.40
2023-04-03T13:15:33.861Z,95.90
2023-04-03T13:20:41.810Z,96.10
2023-04-03T13:25:49.516Z,95.90
2023-04-03T13:31:13.514Z,97.60
2023-04-03T13:36:24.088Z,96.10
2023-04-03T13:41:41.234Z,97.00
2023-04-03T13:46:49.763Z,97.40
2023-04-03T13:52:06.656Z,96.00
2023-04-03T13:57:19.024Z,96.10
2023-04-03T14:02:35.282Z,94.90
2023-04-03T14:07:43.137Z,94.10
2023-04-03T14:12:51.069Z,95.80
2023-04-03T14:17:59.224Z,96.50
2023-04-03T14:23:07.919Z,96.60
2023-04-03T14:28:22.000Z,95.40
2023-04-03T14:33:32.373Z,96.00
2023-04-03T14:38:39.627Z,94.50
2023-04-03T14:43:48.344Z,96.00
2023-04-03T14:48:56.348Z,97.40
2023-04-03T14:54:03.090Z,96.00
2023-04-03T14:59:15.584Z,96.40
2023-04-03T15:04:24.377Z,94.30
2023-04-03T15:09:33.214Z,96.00
2023-04-03T15:14:52.471Z,94.60
2023-04-03T15:19:49.535Z,95.10
2023-04-03T15:24:57.050Z,96.30
2023-04-03T15:30:05.449Z,95.90
2023-04-03T15:35:13.276Z,96.80
2023-04-03T15:40:20.526Z,95.80
2023-04-03T15:45:29.025Z,96.30
2023-04-03T15:50:37.893Z,96.30
2023-04-03T15:55:46.601Z,95.80
2023-04-03T16:00:53.605Z,96.70
2023-04-03T16:05:59.695Z,95.80
2023-04-03T16:11:06.929Z,95.60
2023-04-03T16:16:16.673Z,95.90
2023-04-03T16:21:23.782Z,95.80
2023-04-03T16:26:31.103Z,95.80
2023-04-03T16:31:39.408Z,97.00
2023-04-03T16:36:49.041Z,97.40
2023-04-03T16:41:56.402Z,97.60
2023-04-03T16:47:04.051Z,96.50
2023-04-03T16:52:12.891Z,95.90
2023-04-03T16:57:19.642Z,96.70
2023-04-03T17:02:28.248Z,97.20
2023-04-03T17:07:36.766Z,97.50
2023-04-03T17:12:44.066Z,97.60
2023-04-03T17:17:51.741Z,97.90
2023-04-03T17:22:58.712Z,97.70
2023-04-03T17:28:08.167Z,98.30
2023-04-03T17:33:15.309Z,98.70
2023-04-03T17:38:22.671Z,97.90
2023-04-03T17:43:31.760Z,97.70
2023-04-03T17:48:41.773Z,97.20
2023-04-03T17:53:50.220Z,97.40
2023-04-03T17:58:59.308Z,97.40
2023-04-03T18:04:07.824Z,96.70
2023-04-03T18:09:19.107Z,97.10
2023-04-03T18:14:28.845Z,98.30
2023-04-03T18:19:37.237Z,97.80
2023-04-03T18:24:45.337Z,97.50
2023-04-03T18:29:59.944Z,96.80
2023-04-03T18:35:11.996Z,95.60
2023-04-03T18:40:23.411Z,96.50
2023-04-03T18:45:32.780Z,96.90
2023-04-03T18:50:43.134Z,96.70
2023-04-03T18:55:50.973Z,97.20
2023-04-03T19:00:59.632Z,96.00
2023-04-03T19:06:09.163Z,97.50
2023-04-03T19:11:17.009Z,97.40
2023-04-03T19:16:24.650Z,98.10
2023-04-03T19:21:35.324Z,98.50
2023-04-03T19:26:44.379Z,98.30
2023-04-03T19:31:52.769Z,97.90
2023-04-03T19:37:00.957Z,99.90
2023-04-03T19:42:10.854Z,98.10
2023-04-03T19:47:22.334Z,99.90
2023-04-03T19:52:30.301Z,99.30
2023-04-03T19:57:38.140Z,99.20
2023-04-03T20:02:46.741Z,99.90
2023-04-03T20:07:53.619Z,99.90
2023-04-03T20:13:01.068Z,99.90
2023-04-03T20:18:09.518Z,99.90
2023-04-03T20:23:18.253Z,99.90
2023-04-03T20:28:26.929Z,99.90
2023-04-03T20:33:34.130Z,99.90
2023-04-03T20:38:42.062Z,99.90
2023-04-03T20:43:49.433Z,99.90
2023-04-03T20:48:58.081Z,99.90
2023-04-03T20:54:04.841Z,99.40
2023-04-03T20:59:13.993Z,99.90
2023-04-03T21:04:30.529Z,99.90
2023-04-03T21:10:36.312Z,99.80
2023-04-03T21:15:49.847Z,99.90
2023-04-03T21:20:57.651Z,98.60
2023-04-03T21:26:05.197Z,99.90
2023-04-03T21:31:15.255Z,99.90
2023-04-03T21:36:23.810Z,99.40
2023-04-03T21:41:31.798Z,99.90
2023-04-03T21:46:39.919Z,97.20
2023-04-03T21:51:47.282Z,98.30
2023-04-03T21:56:54.508Z,96.90
2023-04-03T22:02:03.364Z,97.20
2023-04-03T22:07:10.859Z,97.50
2023-04-03T22:12:19.350Z,98.20
2023-04-03T22:17:26.761Z,99.30
2023-04-03T22:22:34.138Z,98.80
2023-04-03T22:27:42.281Z,99.50
2023-04-03T22:32:51.607Z,99.50
2023-04-03T22:37:59.361Z,99.90
2023-04-03T22:43:06.353Z,99.70
2023-04-03T22:48:13.408Z,99.50
2023-04-03T22:53:20.819Z,99.70
2023-04-03T22:58:28.990Z,99.90
2023-04-03T23:03:37.934Z,98.70
2023-04-03T23:08:46.056Z,97.60
2023-04-03T23:13:53.256Z,99.50
2023-04-03T23:18:59.405Z,97.40
2023-04-03T23:24:06.737Z,98.30
2023-04-03T23:29:14.013Z,98.20
2023-04-03T23:34:20.720Z,98.60
2023-04-03T23:39:28.249Z,99.50
2023-04-03T23:44:38.013Z,99.90
2023-04-03T23:49:45.609Z,99.90
2023-04-03T23:54:53.096Z,99.90
